Terminal Aerodrome Forecast
Issued by NWS Pueblo, CO

Home | Current Version | Previous Version | Text Only | Print | Product List | Glossary On
Versions: 1 2 3 4 5 6 7 8 9 10 11 12 13 14 15 16 17 18 19 20 21 22 23 24 25 26 27 28 29 30 31 32
194
FTUS45 KPUB 272333
TAFCOS
TAF
KCOS 272333Z 2800/2824 16012KT P6SM SCT060 BKN110
     FM280100 13008KT P6SM VCSH SCT030 BKN050
     FM281100 14010KT P6SM SCT020 BKN040
     FM281600 09006KT P6SM VCSH BKN060
     FM281800 10007KT P6SM VCSH BKN020
     FM282100 08010KT 3SM -SHRA BKN012=

USA.gov is the U.S. government's official web portal to all federal, state and local government web resources and services.